DLH423 KBOS-EDDF
Flight info
| Callsign | DLH423 |
|---|---|
| Flight time | N/A |
| Altitude | 29000 |
| Route | CELTK7 CELTK DCT FRILL DCT TUSKY N355C JOOPY/M085F290 NATT BEXET/N0497F290 DCT LIFFY UL975 WAL M16 DOLAS DCT NAVPI DCT NOLRU DCT DIXAT DIXAT1D |
| Aircraft | B742/H-SDFHIRWXY/L |
Departure
| Time | N/A |
|---|---|
| Airport | Boston Logan International Airport (KBOS) |
Arrival
| Time | 2026-04-15 22:25 |
|---|---|
| Airport | Frankfurt Main Airport (EDDF) |
| Time | Latitude | Longitude | Altitude | Speed | Heading |
|---|---|---|---|---|---|
| 2026-04-15 22:24 | 50.03687 | 8.54417 | 374 ft | 18 kts | 73° |
| 2026-04-15 22:25 | 50.03730 | 8.54608 | 374 ft | 18 kts | 68° |
| 2026-04-15 22:25 | 50.03775 | 8.54794 | 374 ft | 17 kts | 70° |
| 2026-04-15 22:25 | 50.03815 | 8.54972 | 374 ft | 17 kts | 71° |
| 2026-04-15 22:25 | 50.03853 | 8.55142 | 374 ft | 16 kts | 71° |
| 2026-04-15 22:26 | 50.03897 | 8.55312 | 375 ft | 17 kts | 66° |
| 2026-04-15 22:26 | 50.03941 | 8.55501 | 375 ft | 19 kts | 70° |
| 2026-04-15 22:26 | 50.03989 | 8.55700 | 375 ft | 19 kts | 68° |
| 2026-04-15 22:26 | 50.04037 | 8.55893 | 375 ft | 19 kts | 68° |
| 2026-04-15 22:27 | 50.04084 | 8.56078 | 375 ft | 17 kts | 51° |
| 2026-04-15 22:27 | 50.04184 | 8.56060 | 375 ft | 15 kts | 335° |
| 2026-04-15 22:27 | 50.04270 | 8.55978 | 375 ft | 14 kts | 329° |
| 2026-04-15 22:27 | 50.04359 | 8.55922 | 375 ft | 13 kts | 346° |
| 2026-04-15 22:28 | 50.04445 | 8.55922 | 375 ft | 11 kts | 8° |
| 2026-04-15 22:28 | 50.04521 | 8.55948 | 375 ft | 10 kts | 26° |
| 2026-04-15 22:28 | 50.04562 | 8.56022 | 375 ft | 7 kts | 64° |
| 2026-04-15 22:28 | 50.04576 | 8.56088 | 375 ft | 5 kts | 73° |
| 2026-04-15 22:29 | 50.04586 | 8.56135 | 375 ft | 3 kts | 70° |
| 2026-04-15 22:29 | 50.04595 | 8.56168 | 375 ft | 3 kts | 69° |
| 2026-04-15 22:29 | 50.04607 | 8.56200 | 375 ft | 2 kts | 32° |
| 2026-04-15 22:29 | 50.04623 | 8.56203 | 375 ft | 2 kts | 349° |
| 2026-04-15 22:30 | 50.04645 | 8.56192 | 375 ft | 3 kts | 337° |
| 2026-04-15 22:30 | 50.04665 | 8.56179 | 375 ft | 2 kts | 339° |
| 2026-04-15 22:30 | 50.04676 | 8.56171 | 375 ft | 1 kts | 339° |
| 2026-04-15 22:30 | 50.04688 | 8.56165 | 375 ft | 1 kts | 339° |
| 2026-04-15 22:31 | 50.04691 | 8.56163 | 375 ft | 0 kts | 339° |
| 2026-04-15 22:31 | 50.04698 | 8.56158 | 375 ft | 0 kts | 338° |